createdAt,value
2019-03-02T00:00:10.005Z,7.17
2019-03-02T00:02:11.394Z,7.20
2019-03-02T00:04:12.804Z,7.87
2019-03-02T00:06:14.177Z,7.45
2019-03-02T00:08:15.579Z,7.85
2019-03-02T00:10:16.978Z,8.00
2019-03-02T00:12:18.418Z,7.75
2019-03-02T00:14:19.984Z,9.18
2019-03-02T00:16:21.429Z,8.18
2019-03-02T00:18:25.849Z,8.13
2019-03-02T00:20:26.155Z,8.33
2019-03-02T00:22:27.553Z,7.60
2019-03-02T00:24:28.941Z,8.33
2019-03-02T00:26:30.318Z,8.88
2019-03-02T00:28:32.694Z,9.90
2019-03-02T00:30:35.279Z,9.23
2019-03-02T00:32:36.649Z,8.80
2019-03-02T00:34:38.017Z,7.93
2019-03-02T00:36:39.417Z,8.23
2019-03-02T00:38:43.412Z,7.87
2019-03-02T00:40:44.092Z,8.95
2019-03-02T00:42:48.807Z,9.23
2019-03-02T00:44:48.888Z,8.40
2019-03-02T00:46:50.302Z,8.98
2019-03-02T00:48:51.680Z,9.25
2019-03-02T00:50:53.045Z,9.03
2019-03-02T00:52:55.674Z,8.40
2019-03-02T00:54:58.452Z,7.15
2019-03-02T00:57:00.033Z,7.85
2019-03-02T00:59:03.918Z,7.70
2019-03-02T01:01:04.725Z,8.70
2019-03-02T01:03:06.120Z,7.70
2019-03-02T01:05:07.700Z,7.90
2019-03-02T01:07:09.075Z,7.70
2019-03-02T01:09:11.703Z,7.50
2019-03-02T01:11:13.889Z,6.92
2019-03-02T01:13:16.764Z,6.87
2019-03-02T01:15:18.687Z,7.17
2019-03-02T01:17:20.057Z,8.60
2019-03-02T01:19:21.456Z,7.95
2019-03-02T01:21:22.860Z,8.08
2019-03-02T01:23:27.598Z,8.78
2019-03-02T01:25:27.571Z,9.33
2019-03-02T01:27:31.706Z,8.50
2019-03-02T01:29:32.527Z,8.78
2019-03-02T01:31:36.838Z,9.40
2019-03-02T01:33:37.171Z,8.35
2019-03-02T01:35:38.779Z,7.92
2019-03-02T01:37:43.951Z,9.18
2019-03-02T01:39:43.901Z,8.23
2019-03-02T01:41:45.234Z,7.90
2019-03-02T01:43:46.655Z,9.13
2019-03-02T01:45:48.076Z,9.03
2019-03-02T01:47:51.265Z,8.40
2019-03-02T01:49:52.803Z,10.23
2019-03-02T01:51:54.727Z,9.25
2019-03-02T01:53:57.504Z,9.68
2019-03-02T01:55:58.910Z,9.30
2019-03-02T01:58:00.284Z,9.05
2019-03-02T02:00:06.493Z,9.35
2019-03-02T02:02:07.918Z,9.98
2019-03-02T02:04:09.291Z,10.68
2019-03-02T02:06:10.733Z,9.28
2019-03-02T02:08:12.092Z,9.93
2019-03-02T02:10:14.132Z,8.45
2019-03-02T02:12:16.368Z,8.43
2019-03-02T02:14:18.569Z,9.05
2019-03-02T02:16:21.052Z,8.93
2019-03-02T02:18:27.459Z,9.65
2019-03-02T02:20:25.755Z,9.03
2019-03-02T02:22:27.138Z,9.53
2019-03-02T02:24:28.648Z,8.68
2019-03-02T02:26:30.013Z,9.75
2019-03-02T02:28:32.292Z,10.55
2019-03-02T02:30:34.809Z,10.65
2019-03-02T02:32:36.434Z,9.30
2019-03-02T02:34:37.800Z,8.58
2019-03-02T02:36:39.161Z,9.88
2019-03-02T02:38:40.761Z,10.30
2019-03-02T02:40:42.227Z,9.05
2019-03-02T02:42:44.955Z,9.33
2019-03-02T02:44:46.499Z,9.95
2019-03-02T02:46:47.896Z,9.50
2019-03-02T02:48:49.303Z,9.75
2019-03-02T02:50:50.684Z,8.50
2019-03-02T02:52:52.137Z,8.90
2019-03-02T02:54:57.607Z,8.20
2019-03-02T02:56:58.617Z,9.18
2019-03-02T02:59:01.725Z,8.30
2019-03-02T03:01:03.569Z,10.05
2019-03-02T03:03:04.929Z,9.40
2019-03-02T03:05:10.237Z,9.40
2019-03-02T03:07:12.331Z,8.45
2019-03-02T03:09:16.712Z,9.25
2019-03-02T03:11:18.348Z,9.73
2019-03-02T03:13:19.788Z,9.13
2019-03-02T03:15:21.166Z,9.55
2019-03-02T03:17:22.768Z,8.83
2019-03-02T03:19:26.257Z,9.65
2019-03-02T03:21:29.327Z,9.60
2019-03-02T03:23:30.794Z,9.38
2019-03-02T03:25:32.253Z,9.48
2019-03-02T03:27:33.645Z,8.43
2019-03-02T03:29:35.043Z,8.50
2019-03-02T03:31:36.558Z,8.73
2019-03-02T03:33:46.276Z,10.13
2019-03-02T03:35:41.363Z,9.28
2019-03-02T03:37:50.667Z,9.80
2019-03-02T03:39:46.727Z,8.33
2019-03-02T03:41:49.480Z,9.30
2019-03-02T03:43:50.878Z,9.30
2019-03-02T03:45:52.309Z,8.60
2019-03-02T03:47:53.686Z,10.68
2019-03-02T03:49:55.087Z,8.73
2019-03-02T03:51:56.506Z,9.10
2019-03-02T03:54:01.613Z,9.75
2019-03-02T03:56:04.127Z,11.25
2019-03-02T03:58:04.598Z,10.93
2019-03-02T04:00:10.665Z,10.08
2019-03-02T04:02:12.170Z,11.75
2019-03-02T04:04:13.595Z,10.38
2019-03-02T04:06:15.090Z,9.50
2019-03-02T04:08:16.475Z,11.10
2019-03-02T04:10:24.957Z,11.83
2019-03-02T04:12:24.372Z,11.97
2019-03-02T04:14:25.376Z,11.55
2019-03-02T04:16:27.857Z,12.85
2019-03-02T04:18:54.640Z,10.90
2019-03-02T04:20:53.216Z,11.38
2019-03-02T04:22:56.951Z,12.28
2019-03-02T04:24:58.329Z,12.37
2019-03-02T04:26:59.732Z,13.00
2019-03-02T04:29:09.171Z,12.13
2019-03-02T04:31:08.974Z,12.85
2019-03-02T04:33:08.046Z,15.20
2019-03-02T04:35:09.622Z,12.23
2019-03-02T04:37:11.004Z,14.38
2019-03-02T04:39:13.586Z,14.73
2019-03-02T04:41:15.701Z,15.03
2019-03-02T04:43:17.093Z,15.05
2019-03-02T04:45:18.499Z,15.08
2019-03-02T04:47:22.464Z,14.55
2019-03-02T04:49:23.188Z,16.70
2019-03-02T04:51:24.594Z,16.23
2019-03-02T04:53:25.983Z,15.65
2019-03-02T04:55:27.410Z,15.13
2019-03-02T04:57:29.380Z,14.68
2019-03-02T04:59:30.886Z,15.50
2019-03-02T05:01:32.266Z,15.98
2019-03-02T05:03:33.639Z,14.43
2019-03-02T05:05:35.235Z,15.83
2019-03-02T05:07:36.625Z,18.27
2019-03-02T05:09:38.031Z,18.62
2019-03-02T05:11:40.722Z,15.90
2019-03-02T05:13:42.242Z,15.23
2019-03-02T05:15:43.634Z,15.83
2019-03-02T05:17:45.066Z,14.65
2019-03-02T05:19:46.449Z,17.17
2019-03-02T05:21:47.829Z,15.93
2019-03-02T05:23:49.283Z,15.30
2019-03-02T05:25:51.667Z,14.43
2019-03-02T05:27:54.035Z,16.52
2019-03-02T05:29:55.749Z,15.90
2019-03-02T05:31:57.125Z,15.63
2019-03-02T05:34:00.809Z,15.65
2019-03-02T05:36:01.798Z,15.65
2019-03-02T05:38:03.241Z,15.18
2019-03-02T05:40:10.627Z,15.75
2019-03-02T05:42:13.646Z,18.87
2019-03-02T05:44:15.387Z,15.20
2019-03-02T05:46:16.769Z,17.90
2019-03-02T05:48:18.173Z,19.20
2019-03-02T05:50:19.584Z,19.27
2019-03-02T05:52:21.061Z,18.42
2019-03-02T05:54:22.540Z,21.17
2019-03-02T05:56:25.917Z,18.45
2019-03-02T05:58:27.241Z,18.70
2019-03-02T06:00:28.829Z,19.85
2019-03-02T06:02:30.210Z,19.20
2019-03-02T06:04:31.589Z,18.65
2019-03-02T06:06:32.983Z,19.77
2019-03-02T06:08:35.611Z,18.25
2019-03-02T06:10:37.687Z,20.82
2019-03-02T06:12:39.084Z,17.52
2019-03-02T06:14:40.497Z,18.50
2019-03-02T06:16:41.867Z,18.42
2019-03-02T06:18:45.380Z,18.02
2019-03-02T06:20:46.554Z,19.05
2019-03-02T06:22:48.030Z,20.75
2019-03-02T06:24:49.965Z,19.75
2019-03-02T06:26:51.674Z,20.70
2019-03-02T06:28:54.587Z,21.00
2019-03-02T06:30:56.648Z,21.25
2019-03-02T06:32:58.622Z,17.27
2019-03-02T06:35:00.433Z,19.42
2019-03-02T06:37:03.697Z,19.30
2019-03-02T06:39:07.941Z,18.85
2019-03-02T06:41:10.481Z,20.45
2019-03-02T06:43:12.216Z,19.57
2019-03-02T06:45:16.602Z,20.15
2019-03-02T06:47:18.389Z,17.90
2019-03-02T06:49:20.963Z,19.10
2019-03-02T06:51:22.612Z,17.25
2019-03-02T06:53:23.992Z,17.10
2019-03-02T06:55:25.506Z,19.07
2019-03-02T06:57:26.909Z,17.80
2019-03-02T06:59:28.318Z,16.70
2019-03-02T07:01:29.729Z,18.30
2019-03-02T07:03:31.112Z,18.30
2019-03-02T07:05:34.047Z,17.98
2019-03-02T07:07:35.934Z,17.40
2019-03-02T07:09:37.351Z,18.20
2019-03-02T07:11:38.726Z,20.77
2019-03-02T07:13:40.101Z,17.85
2019-03-02T07:15:43.721Z,18.82
2019-03-02T07:18:06.359Z,18.17
2019-03-02T07:20:12.943Z,16.85
2019-03-02T07:22:16.854Z,17.45
2019-03-02T07:24:17.695Z,17.77
2019-03-02T07:26:19.708Z,17.12
2019-03-02T07:28:22.244Z,15.88
2019-03-02T07:30:23.849Z,17.15
2019-03-02T07:32:25.231Z,18.70
2019-03-02T07:34:26.620Z,17.35
2019-03-02T07:36:33.826Z,16.00
2019-03-02T07:38:31.365Z,18.85
2019-03-02T07:40:32.730Z,18.20
2019-03-02T07:42:34.856Z,18.92
2019-03-02T07:44:36.419Z,17.27
2019-03-02T07:46:37.815Z,17.20
2019-03-02T07:48:39.220Z,18.27
2019-03-02T07:50:40.613Z,17.30
2019-03-02T07:52:42.000Z,17.00
2019-03-02T07:54:43.427Z,18.87
2019-03-02T07:56:44.895Z,18.70
2019-03-02T07:58:46.255Z,16.93
2019-03-02T08:00:47.648Z,19.35
2019-03-02T08:02:49.062Z,17.77
2019-03-02T08:04:50.430Z,18.05
2019-03-02T08:06:51.827Z,17.42
2019-03-02T08:08:53.282Z,19.37
2019-03-02T08:10:54.693Z,17.85
2019-03-02T08:12:57.780Z,17.45
2019-03-02T08:14:59.795Z,16.82
2019-03-02T08:17:01.171Z,19.87
2019-03-02T08:19:03.909Z,16.95
2019-03-02T08:21:05.952Z,19.73
2019-03-02T08:23:07.427Z,20.62
2019-03-02T08:25:11.390Z,23.50
2019-03-02T08:27:12.769Z,17.82
2019-03-02T08:29:14.190Z,19.10
2019-03-02T08:31:15.591Z,16.10
2019-03-02T08:33:16.984Z,16.30
2019-03-02T08:35:18.401Z,16.60
2019-03-02T08:37:19.820Z,17.17
2019-03-02T08:39:21.238Z,16.40
2019-03-02T08:41:24.344Z,18.80
2019-03-02T08:43:25.905Z,15.55
2019-03-02T08:45:27.742Z,20.00
2019-03-02T08:47:30.744Z,16.45
2019-03-02T08:49:32.144Z,17.60
2019-03-02T08:51:33.556Z,18.30
2019-03-02T08:53:34.934Z,15.38
2019-03-02T08:55:36.349Z,15.48
2019-03-02T08:57:37.867Z,16.55
2019-03-02T08:59:39.242Z,15.20
2019-03-02T09:01:40.621Z,16.05
2019-03-02T09:03:42.038Z,15.38
2019-03-02T09:05:50.370Z,16.50
2019-03-02T09:07:47.131Z,15.48
2019-03-02T09:09:48.511Z,13.62
2019-03-02T09:11:49.895Z,13.88
2019-03-02T09:13:51.485Z,13.05
2019-03-02T09:15:52.889Z,14.80
2019-03-02T09:17:57.694Z,13.65
2019-03-02T09:19:59.629Z,14.28
2019-03-02T09:22:00.869Z,13.78
2019-03-02T09:24:02.342Z,12.50
2019-03-02T09:26:04.589Z,12.30
2019-03-02T09:28:06.932Z,12.65
2019-03-02T09:30:16.773Z,12.33
2019-03-02T09:32:18.171Z,11.45
2019-03-02T09:34:19.641Z,13.40
2019-03-02T09:36:21.046Z,15.93
2019-03-02T09:38:22.476Z,11.50
2019-03-02T09:40:24.689Z,12.53
2019-03-02T09:42:26.584Z,11.70
2019-03-02T09:44:28.064Z,13.10
2019-03-02T09:46:29.477Z,12.13
2019-03-02T09:48:30.892Z,11.83
2019-03-02T09:50:32.325Z,11.50
2019-03-02T09:52:33.787Z,13.32
2019-03-02T09:54:35.199Z,12.00
2019-03-02T09:56:36.585Z,12.33
2019-03-02T09:58:38.026Z,10.05
2019-03-02T10:00:39.507Z,11.08
2019-03-02T10:02:40.976Z,11.95
2019-03-02T10:04:42.386Z,10.53
2019-03-02T10:06:43.993Z,10.55
2019-03-02T10:08:45.859Z,10.95
2019-03-02T10:10:47.339Z,11.20
2019-03-02T10:12:51.441Z,11.70
2019-03-02T10:14:52.054Z,11.53
2019-03-02T10:16:53.449Z,11.05
2019-03-02T10:18:54.898Z,10.68
2019-03-02T10:20:56.292Z,11.83
2019-03-02T10:22:57.670Z,11.65
2019-03-02T10:24:59.046Z,10.35
2019-03-02T10:27:00.457Z,12.20
2019-03-02T10:29:02.275Z,10.70
2019-03-02T10:31:06.177Z,10.93
2019-03-02T10:33:06.957Z,13.30
2019-03-02T10:35:10.074Z,10.08
2019-03-02T10:37:11.457Z,11.48
2019-03-02T10:39:12.822Z,11.10
2019-03-02T10:41:16.666Z,11.50
2019-03-02T10:43:17.576Z,11.20
2019-03-02T10:45:21.002Z,12.20
2019-03-02T10:47:22.433Z,10.80
2019-03-02T10:49:23.839Z,11.70
2019-03-02T10:51:25.206Z,10.90
2019-03-02T10:53:27.520Z,9.77
2019-03-02T10:55:29.055Z,12.35
2019-03-02T10:57:30.448Z,11.13
2019-03-02T10:59:31.882Z,12.67
2019-03-02T11:01:33.251Z,9.27
2019-03-02T11:03:35.320Z,9.93
2019-03-02T11:05:41.499Z,10.07
2019-03-02T11:07:48.484Z,12.05
2019-03-02T11:09:52.777Z,10.70
2019-03-02T11:12:02.976Z,10.95
2019-03-02T11:14:10.211Z,11.00
2019-03-02T11:16:16.147Z,10.63
2019-03-02T11:18:25.162Z,9.78
2019-03-02T11:20:31.342Z,10.05
2019-03-02T11:22:38.503Z,9.90
2019-03-02T11:24:56.538Z,11.12
2019-03-02T11:27:02.773Z,12.23
2019-03-02T11:29:12.200Z,11.30
2019-03-02T11:31:18.184Z,11.07
2019-03-02T11:33:30.994Z,10.57
2019-03-02T11:35:44.902Z,11.03
2019-03-02T11:38:01.458Z,9.87
2019-03-02T11:40:11.333Z,10.80
2019-03-02T11:42:14.902Z,11.85
2019-03-02T11:44:24.299Z,12.10
2019-03-02T11:46:33.458Z,10.70
2019-03-02T11:48:39.909Z,11.53
2019-03-02T11:50:46.760Z,9.70
2019-03-02T11:52:50.350Z,10.70
2019-03-02T11:55:05.904Z,11.10
2019-03-02T11:57:12.119Z,9.50
2019-03-02T11:59:24.435Z,10.38
2019-03-02T12:01:34.219Z,10.40
2019-03-02T12:03:39.050Z,10.10
2019-03-02T12:05:53.320Z,10.37
2019-03-02T12:07:59.529Z,9.10
2019-03-02T12:10:05.221Z,9.47
2019-03-02T12:12:23.039Z,10.50
2019-03-02T12:14:46.230Z,8.58
2019-03-02T12:16:55.763Z,9.27
2019-03-02T12:19:13.427Z,9.70
2019-03-02T12:21:18.021Z,9.48
2019-03-02T12:23:38.813Z,8.63
2019-03-02T12:25:48.443Z,8.60
2019-03-02T12:27:55.012Z,8.50
2019-03-02T12:30:02.649Z,8.40
2019-03-02T12:32:08.951Z,8.90
2019-03-02T12:34:14.973Z,8.10
2019-03-02T12:36:26.980Z,8.00
2019-03-02T12:38:48.027Z,8.13
2019-03-02T12:40:50.595Z,8.07
2019-03-02T12:42:56.536Z,9.57
2019-03-02T12:45:05.539Z,6.93
2019-03-02T12:47:08.844Z,7.17
2019-03-02T12:49:28.780Z,7.23
2019-03-02T12:51:35.203Z,6.70
2019-03-02T12:53:37.237Z,7.10
2019-03-02T12:55:40.572Z,7.67
2019-03-02T12:57:49.823Z,7.47
2019-03-02T12:59:53.135Z,8.30
2019-03-02T13:02:13.995Z,7.53
2019-03-02T13:04:35.035Z,7.50
2019-03-02T13:06:50.470Z,7.00
2019-03-02T13:08:59.024Z,7.33
2019-03-02T13:11:01.603Z,9.40
2019-03-02T13:13:07.811Z,6.97
2019-03-02T13:15:17.550Z,8.77
2019-03-02T13:17:19.235Z,7.50
2019-03-02T13:19:28.266Z,8.40
2019-03-02T13:21:48.074Z,7.27
2019-03-02T13:23:57.918Z,7.57
2019-03-02T13:26:14.660Z,7.03
2019-03-02T13:28:24.288Z,7.93
2019-03-02T13:30:42.496Z,7.20
2019-03-02T13:32:55.980Z,7.53
2019-03-02T13:35:03.005Z,6.80
2019-03-02T13:37:08.974Z,7.67
2019-03-02T13:39:18.003Z,7.00
2019-03-02T13:41:36.605Z,7.17
2019-03-02T13:43:39.923Z,7.00
2019-03-02T13:45:43.199Z,8.00
2019-03-02T13:47:48.789Z,7.67
2019-03-02T13:49:57.425Z,6.97
2019-03-02T13:52:13.023Z,8.20
2019-03-02T13:54:16.279Z,7.63
2019-03-02T13:56:36.123Z,11.33
2019-03-02T13:58:51.074Z,6.80
2019-03-02T14:00:56.452Z,6.80
2019-03-02T14:02:59.733Z,6.60
2019-03-02T14:05:12.175Z,6.60
2019-03-02T14:07:33.395Z,6.00
2019-03-02T14:09:41.485Z,6.90
2019-03-02T14:11:53.580Z,6.60
2019-03-02T14:14:07.277Z,6.30
2019-03-02T14:16:08.143Z,7.70
2019-03-02T14:18:11.424Z,6.57
2019-03-02T14:20:20.603Z,6.33
2019-03-02T14:22:28.561Z,6.77
2019-03-02T14:24:31.830Z,6.60
2019-03-02T14:26:51.677Z,6.10
2019-03-02T14:29:11.296Z,7.17
2019-03-02T14:31:34.122Z,6.23
2019-03-02T14:33:42.914Z,7.47
2019-03-02T14:35:48.987Z,6.70
2019-03-02T14:38:09.094Z,6.57
2019-03-02T14:40:15.560Z,6.00
2019-03-02T14:42:27.826Z,6.60
2019-03-02T14:44:33.472Z,6.80
2019-03-02T14:46:51.329Z,7.40
2019-03-02T14:48:54.662Z,6.07
2019-03-02T14:50:57.955Z,6.50
2019-03-02T14:53:10.069Z,6.77
2019-03-02T14:55:21.023Z,6.53
2019-03-02T14:57:39.316Z,7.23
2019-03-02T14:59:42.608Z,7.10
2019-03-02T15:01:45.880Z,6.23
2019-03-02T15:03:49.210Z,7.73
2019-03-02T15:06:08.685Z,7.90
2019-03-02T15:08:03.652Z,5.80
2019-03-02T15:10:26.732Z,5.90
2019-03-02T15:12:28.925Z,6.67
2019-03-02T15:14:42.518Z,6.10
2019-03-02T15:16:48.954Z,7.30
2019-03-02T15:18:57.986Z,7.57
2019-03-02T15:21:01.293Z,6.50
2019-03-02T15:23:04.572Z,6.60
2019-03-02T15:25:26.178Z,8.90
2019-03-02T15:27:31.224Z,7.23
2019-03-02T15:29:40.220Z,6.97
2019-03-02T15:31:46.170Z,7.33
2019-03-02T15:33:49.407Z,7.63
2019-03-02T15:35:59.025Z,7.30
2019-03-02T15:38:14.409Z,8.40
2019-03-02T15:40:17.727Z,8.40
2019-03-02T15:42:32.825Z,8.70
2019-03-02T15:44:42.975Z,8.33
2019-03-02T15:47:05.914Z,8.40
2019-03-02T15:49:15.031Z,9.30
2019-03-02T15:51:21.146Z,8.93
2019-03-02T15:53:27.464Z,8.97
2019-03-02T15:55:30.885Z,8.97
2019-03-02T15:57:39.949Z,8.10
2019-03-02T15:59:45.171Z,8.07
2019-03-02T16:01:51.430Z,9.43
2019-03-02T16:04:05.065Z,9.53
2019-03-02T16:06:14.450Z,9.10
2019-03-02T16:08:18.104Z,8.27
2019-03-02T16:10:21.544Z,9.97
2019-03-02T16:12:40.967Z,11.10
2019-03-02T16:14:54.305Z,11.13
2019-03-02T16:17:03.581Z,10.80
2019-03-02T16:19:08.744Z,9.87
2019-03-02T16:21:15.930Z,10.80
2019-03-02T16:23:22.066Z,11.33
2019-03-02T16:25:35.880Z,11.07
2019-03-02T16:27:39.559Z,10.17
2019-03-02T16:29:42.993Z,10.67
2019-03-02T16:31:58.484Z,11.60
2019-03-02T16:34:19.955Z,11.30
2019-03-02T16:36:26.236Z,11.13
2019-03-02T16:38:30.903Z,11.63
2019-03-02T16:40:44.058Z,12.07
2019-03-02T16:42:50.961Z,11.00
2019-03-02T16:44:55.203Z,11.77
2019-03-02T16:46:58.575Z,12.00
2019-03-02T16:49:04.668Z,12.97
2019-03-02T16:51:07.591Z,11.47
2019-03-02T16:53:19.455Z,12.57
2019-03-02T16:55:34.115Z,9.97
2019-03-02T16:57:41.058Z,11.67
2019-03-02T16:59:44.880Z,11.43
2019-03-02T17:02:03.062Z,10.90
2019-03-02T17:04:23.318Z,11.53
2019-03-02T17:06:42.662Z,11.50
2019-03-02T17:09:03.417Z,10.13
2019-03-02T17:11:06.881Z,11.37
2019-03-02T17:13:10.283Z,9.93
2019-03-02T17:15:13.600Z,11.83
2019-03-02T17:17:45.272Z,11.50
2019-03-02T17:19:48.135Z,11.13
2019-03-02T17:22:07.897Z,10.53
2019-03-02T17:24:13.832Z,11.03
2019-03-02T17:26:26.134Z,11.60
2019-03-02T17:28:36.097Z,12.30
2019-03-02T17:30:39.484Z,10.30
2019-03-02T17:33:01.298Z,11.40
2019-03-02T17:35:10.661Z,11.33
2019-03-02T17:37:13.942Z,10.70
2019-03-02T17:39:23.772Z,10.87
2019-03-02T17:41:25.350Z,11.97
2019-03-02T17:43:28.623Z,11.60
2019-03-02T17:45:37.895Z,11.30
2019-03-02T17:47:41.166Z,11.40
2019-03-02T17:49:47.433Z,10.33
2019-03-02T17:52:09.370Z,10.90
2019-03-02T17:54:20.367Z,12.03
2019-03-02T17:56:37.108Z,10.97
2019-03-02T17:58:59.181Z,11.80
2019-03-02T18:01:05.550Z,11.23
2019-03-02T18:03:18.405Z,11.73
2019-03-02T18:05:22.879Z,12.73
2019-03-02T18:07:26.217Z,11.63
2019-03-02T18:09:35.467Z,11.03
2019-03-02T18:11:46.526Z,11.60
2019-03-02T18:14:01.961Z,12.20
2019-03-02T18:16:06.587Z,11.43
2019-03-02T18:18:08.221Z,12.80
2019-03-02T18:20:09.692Z,12.67
2019-03-02T18:22:11.706Z,11.70
2019-03-02T18:24:13.289Z,12.67
2019-03-02T18:26:14.673Z,12.20
2019-03-02T18:28:16.142Z,12.03
2019-03-02T18:30:19.779Z,13.43
2019-03-02T18:32:21.168Z,11.90
2019-03-02T18:34:23.992Z,12.60
2019-03-02T18:36:25.971Z,11.63
2019-03-02T18:38:27.351Z,13.00
2019-03-02T18:40:28.718Z,13.10
2019-03-02T18:42:30.756Z,13.13
2019-03-02T18:44:32.318Z,11.87
2019-03-02T18:46:33.923Z,11.37
2019-03-02T18:48:46.105Z,11.77
2019-03-02T18:50:52.271Z,12.70
2019-03-02T18:53:02.633Z,14.43
2019-03-02T18:55:06.640Z,15.30
2019-03-02T18:57:09.769Z,13.53
2019-03-02T18:59:11.235Z,14.40
2019-03-02T19:01:13.096Z,14.90
2019-03-02T19:03:14.458Z,14.03
2019-03-02T19:05:16.072Z,12.23
2019-03-02T19:07:17.656Z,13.47
2019-03-02T19:09:19.547Z,13.00
2019-03-02T19:11:20.921Z,13.83
2019-03-02T19:13:22.353Z,15.67
2019-03-02T19:15:24.421Z,14.97
2019-03-02T19:17:25.775Z,14.97
2019-03-02T19:19:27.189Z,13.90
2019-03-02T19:21:28.567Z,14.38
2019-03-02T19:23:29.934Z,14.57
2019-03-02T19:25:31.339Z,14.43
2019-03-02T19:27:32.707Z,15.47
2019-03-02T19:29:34.153Z,17.15
2019-03-02T19:31:35.521Z,15.58
2019-03-02T19:33:36.906Z,15.63
2019-03-02T19:35:38.329Z,15.67
2019-03-02T19:37:40.908Z,16.30
2019-03-02T19:39:42.349Z,15.63
2019-03-02T19:41:43.809Z,16.43
2019-03-02T19:43:45.206Z,15.45
2019-03-02T19:45:46.563Z,14.50
2019-03-02T19:47:48.030Z,16.87
2019-03-02T19:49:49.384Z,15.10
2019-03-02T19:51:50.808Z,15.97
2019-03-02T19:53:53.233Z,16.00
2019-03-02T19:55:54.608Z,15.97
2019-03-02T19:57:56.039Z,16.37
2019-03-02T19:59:57.474Z,15.75
2019-03-02T20:01:58.839Z,16.57
2019-03-02T20:04:00.377Z,17.30
2019-03-02T20:06:01.745Z,17.43
2019-03-02T20:08:03.413Z,15.95
2019-03-02T20:10:12.043Z,17.27
2019-03-02T20:12:13.405Z,18.85
2019-03-02T20:14:14.871Z,19.85
2019-03-02T20:16:16.486Z,19.73
2019-03-02T20:18:17.861Z,18.98
2019-03-02T20:20:19.310Z,18.17
2019-03-02T20:22:20.739Z,18.42
2019-03-02T20:24:22.101Z,20.12
2019-03-02T20:26:23.849Z,16.85
2019-03-02T20:28:25.268Z,19.20
2019-03-02T20:30:26.702Z,19.98
2019-03-02T20:32:28.131Z,21.77
2019-03-02T20:34:29.545Z,18.82
2019-03-02T20:36:31.014Z,19.27
2019-03-02T20:38:32.451Z,18.48
2019-03-02T20:40:33.840Z,19.55
2019-03-02T20:42:35.232Z,19.77
2019-03-02T20:44:36.655Z,19.27
2019-03-02T20:46:38.094Z,19.52
2019-03-02T20:48:39.937Z,20.25
2019-03-02T20:50:42.216Z,19.87
2019-03-02T20:52:44.099Z,19.67
2019-03-02T20:54:45.878Z,19.92
2019-03-02T20:56:47.807Z,20.45
2019-03-02T20:58:49.475Z,20.85
2019-03-02T21:00:51.452Z,20.37
2019-03-02T21:02:56.185Z,18.50
2019-03-02T21:04:58.075Z,19.70
2019-03-02T21:07:01.451Z,20.70
2019-03-02T21:09:05.254Z,18.77
2019-03-02T21:11:06.928Z,18.85
2019-03-02T21:13:10.391Z,19.70
2019-03-02T21:15:19.131Z,19.02
2019-03-02T21:17:20.793Z,20.82
2019-03-02T21:19:22.454Z,19.12
2019-03-02T21:21:24.733Z,18.90
2019-03-02T21:23:26.508Z,18.95
2019-03-02T21:25:28.287Z,19.52
2019-03-02T21:27:30.267Z,18.10
2019-03-02T21:29:31.981Z,17.57
2019-03-02T21:31:33.763Z,17.70
2019-03-02T21:33:35.522Z,20.47
2019-03-02T21:35:37.345Z,19.03
2019-03-02T21:37:39.305Z,20.30
2019-03-02T21:39:41.164Z,18.83
2019-03-02T21:41:43.043Z,18.60
2019-03-02T21:43:44.972Z,18.60
2019-03-02T21:45:47.139Z,19.95
2019-03-02T21:47:50.252Z,19.03
2019-03-02T21:49:53.199Z,18.03
2019-03-02T21:51:55.031Z,19.30
2019-03-02T21:53:56.957Z,18.50
2019-03-02T21:55:58.684Z,16.82
2019-03-02T21:58:00.042Z,18.57
2019-03-02T22:00:01.525Z,18.90
2019-03-02T22:02:02.976Z,17.17
2019-03-02T22:04:04.524Z,17.67
2019-03-02T22:06:05.899Z,19.10
2019-03-02T22:08:07.282Z,16.47
2019-03-02T22:10:30.367Z,18.10
2019-03-02T22:12:31.823Z,17.87
2019-03-02T22:14:33.648Z,17.10
2019-03-02T22:16:35.145Z,19.10
2019-03-02T22:18:36.578Z,17.35
2019-03-02T22:20:38.012Z,18.03
2019-03-02T22:22:39.520Z,17.87
2019-03-02T22:24:42.848Z,16.80
2019-03-02T22:26:44.215Z,18.97
2019-03-02T22:28:45.620Z,18.20
2019-03-02T22:30:47.013Z,17.57
2019-03-02T22:32:48.493Z,18.45
2019-03-02T22:34:49.959Z,18.25
2019-03-02T22:36:51.574Z,17.57
2019-03-02T22:38:52.953Z,19.23
2019-03-02T22:40:54.349Z,17.75
2019-03-02T22:42:57.364Z,18.37
2019-03-02T22:44:58.996Z,16.85
2019-03-02T22:47:00.417Z,18.52
2019-03-02T22:49:02.334Z,18.05
2019-03-02T22:51:03.690Z,18.30
2019-03-02T22:53:05.116Z,18.97
2019-03-02T22:55:11.188Z,18.48
2019-03-02T22:57:12.565Z,19.30
2019-03-02T22:59:13.969Z,21.07
2019-03-02T23:01:36.142Z,20.43
2019-03-02T23:03:37.246Z,19.82
2019-03-02T23:05:38.702Z,19.37
2019-03-02T23:07:40.081Z,19.82
2019-03-02T23:09:41.668Z,20.37
2019-03-02T23:11:43.036Z,19.80
2019-03-02T23:13:44.406Z,20.57
2019-03-02T23:15:45.818Z,20.88
2019-03-02T23:17:47.187Z,19.57
2019-03-02T23:19:48.610Z,20.30
2019-03-02T23:21:49.962Z,21.57
2019-03-02T23:23:51.643Z,19.32
2019-03-02T23:25:53.064Z,20.45
2019-03-02T23:27:54.592Z,20.08
2019-03-02T23:29:55.986Z,20.30
2019-03-02T23:32:00.197Z,20.40
2019-03-02T23:34:01.577Z,21.03
2019-03-02T23:36:02.985Z,21.02
2019-03-02T23:38:04.355Z,20.00
2019-03-02T23:40:14.467Z,21.87
2019-03-02T23:42:17.764Z,23.43
2019-03-02T23:44:24.830Z,22.50
2019-03-02T23:46:26.236Z,22.20
2019-03-02T23:48:27.592Z,21.70
2019-03-02T23:50:29.001Z,22.43
2019-03-02T23:52:30.369Z,23.83
2019-03-02T23:54:31.740Z,20.82
2019-03-02T23:56:33.146Z,23.70
2019-03-02T23:58:34.517Z,22.67
